sensor_id;sensor_type;location;lat;lon;timestamp;P1;durP1;ratioP1;P2;durP2;ratioP2
71622;SDS011;59473;53.214;5.728;2023-04-03T00:00:01;6.47;;;5.33;;
71622;SDS011;59473;53.214;5.728;2023-04-03T00:02:27;7.90;;;5.18;;
71622;SDS011;59473;53.214;5.728;2023-04-03T00:04:53;5.90;;;5.10;;
71622;SDS011;59473;53.214;5.728;2023-04-03T00:07:18;8.73;;;5.67;;
71622;SDS011;59473;53.214;5.728;2023-04-03T00:09:43;7.67;;;5.80;;
71622;SDS011;59473;53.214;5.728;2023-04-03T00:12:08;6.50;;;5.13;;
71622;SDS011;59473;53.214;5.728;2023-04-03T00:14:33;8.43;;;5.30;;
71622;SDS011;59473;53.214;5.728;2023-04-03T00:16:59;7.97;;;5.97;;
71622;SDS011;59473;53.214;5.728;2023-04-03T00:19:24;10.03;;;6.17;;
71622;SDS011;59473;53.214;5.728;2023-04-03T00:21:49;9.43;;;5.33;;
71622;SDS011;59473;53.214;5.728;2023-04-03T00:24:15;7.18;;;5.68;;
71622;SDS011;59473;53.214;5.728;2023-04-03T00:26:40;8.17;;;5.73;;
71622;SDS011;59473;53.214;5.728;2023-04-03T00:29:05;7.60;;;4.90;;
71622;SDS011;59473;53.214;5.728;2023-04-03T00:31:31;7.10;;;6.37;;
71622;SDS011;59473;53.214;5.728;2023-04-03T00:33:56;8.07;;;4.80;;
71622;SDS011;59473;53.214;5.728;2023-04-03T00:36:21;6.68;;;5.45;;
71622;SDS011;59473;53.214;5.728;2023-04-03T00:38:46;7.47;;;5.55;;
71622;SDS011;59473;53.214;5.728;2023-04-03T00:41:11;10.77;;;6.50;;
71622;SDS011;59473;53.214;5.728;2023-04-03T00:43:37;7.60;;;5.73;;
71622;SDS011;59473;53.214;5.728;2023-04-03T00:46:02;8.32;;;5.30;;
71622;SDS011;59473;53.214;5.728;2023-04-03T00:48:29;7.83;;;6.60;;
71622;SDS011;59473;53.214;5.728;2023-04-03T00:50:55;6.68;;;6.00;;
71622;SDS011;59473;53.214;5.728;2023-04-03T00:53:40;7.45;;;5.88;;
71622;SDS011;59473;53.214;5.728;2023-04-03T00:56:06;7.00;;;5.87;;
71622;SDS011;59473;53.214;5.728;2023-04-03T00:58:43;9.73;;;6.05;;
71622;SDS011;59473;53.214;5.728;2023-04-03T01:01:10;7.60;;;5.57;;
71622;SDS011;59473;53.214;5.728;2023-04-03T01:03:36;7.88;;;6.20;;
71622;SDS011;59473;53.214;5.728;2023-04-03T01:06:02;7.13;;;6.40;;
71622;SDS011;59473;53.214;5.728;2023-04-03T01:08:27;7.13;;;6.20;;
71622;SDS011;59473;53.214;5.728;2023-04-03T01:10:53;8.75;;;5.65;;
71622;SDS011;59473;53.214;5.728;2023-04-03T01:13:19;7.77;;;5.90;;
71622;SDS011;59473;53.214;5.728;2023-04-03T01:15:45;6.95;;;6.13;;
71622;SDS011;59473;53.214;5.728;2023-04-03T01:18:10;11.53;;;6.10;;
71622;SDS011;59473;53.214;5.728;2023-04-03T01:25:33;9.83;;;5.77;;
71622;SDS011;59473;53.214;5.728;2023-04-03T01:27:59;7.88;;;5.90;;
71622;SDS011;59473;53.214;5.728;2023-04-03T01:30:25;6.23;;;5.03;;
71622;SDS011;59473;53.214;5.728;2023-04-03T01:32:52;6.68;;;5.45;;
71622;SDS011;59473;53.214;5.728;2023-04-03T01:35:17;6.63;;;5.23;;
71622;SDS011;59473;53.214;5.728;2023-04-03T01:37:43;6.83;;;5.70;;
71622;SDS011;59473;53.214;5.728;2023-04-03T01:40:08;8.90;;;5.40;;
71622;SDS011;59473;53.214;5.728;2023-04-03T01:42:33;6.40;;;5.30;;
71622;SDS011;59473;53.214;5.728;2023-04-03T01:44:59;9.67;;;6.10;;
71622;SDS011;59473;53.214;5.728;2023-04-03T01:47:24;8.80;;;5.73;;
71622;SDS011;59473;53.214;5.728;2023-04-03T01:49:49;6.03;;;4.80;;
71622;SDS011;59473;53.214;5.728;2023-04-03T01:52:15;6.83;;;5.50;;
71622;SDS011;59473;53.214;5.728;2023-04-03T01:54:40;6.33;;;5.07;;
71622;SDS011;59473;53.214;5.728;2023-04-03T01:57:05;6.43;;;5.50;;
71622;SDS011;59473;53.214;5.728;2023-04-03T01:59:30;8.87;;;5.87;;
71622;SDS011;59473;53.214;5.728;2023-04-03T02:01:56;10.23;;;5.70;;
71622;SDS011;59473;53.214;5.728;2023-04-03T02:04:21;8.80;;;5.50;;
71622;SDS011;59473;53.214;5.728;2023-04-03T02:06:46;7.05;;;5.25;;
71622;SDS011;59473;53.214;5.728;2023-04-03T02:09:12;6.73;;;5.20;;
71622;SDS011;59473;53.214;5.728;2023-04-03T02:11:37;7.30;;;5.00;;
71622;SDS011;59473;53.214;5.728;2023-04-03T02:14:02;7.87;;;5.20;;
71622;SDS011;59473;53.214;5.728;2023-04-03T02:16:27;7.53;;;5.20;;
71622;SDS011;59473;53.214;5.728;2023-04-03T02:18:53;7.30;;;6.10;;
71622;SDS011;59473;53.214;5.728;2023-04-03T02:21:18;6.27;;;5.13;;
71622;SDS011;59473;53.214;5.728;2023-04-03T02:23:44;6.93;;;5.33;;
71622;SDS011;59473;53.214;5.728;2023-04-03T02:26:10;6.45;;;5.15;;
71622;SDS011;59473;53.214;5.728;2023-04-03T02:28:36;5.43;;;4.70;;
71622;SDS011;59473;53.214;5.728;2023-04-03T02:31:01;7.22;;;6.53;;
71622;SDS011;59473;53.214;5.728;2023-04-03T02:33:27;7.07;;;6.38;;
71622;SDS011;59473;53.214;5.728;2023-04-03T02:35:53;10.70;;;5.57;;
71622;SDS011;59473;53.214;5.728;2023-04-03T02:38:18;8.60;;;6.53;;
71622;SDS011;59473;53.214;5.728;2023-04-03T02:40:43;6.80;;;5.53;;
71622;SDS011;59473;53.214;5.728;2023-04-03T02:43:08;7.50;;;6.23;;
71622;SDS011;59473;53.214;5.728;2023-04-03T02:45:34;8.43;;;5.90;;
71622;SDS011;59473;53.214;5.728;2023-04-03T02:47:59;8.57;;;6.32;;
71622;SDS011;59473;53.214;5.728;2023-04-03T02:50:24;6.57;;;4.73;;
71622;SDS011;59473;53.214;5.728;2023-04-03T02:52:49;5.87;;;5.13;;
71622;SDS011;59473;53.214;5.728;2023-04-03T02:55:15;6.73;;;5.83;;
71622;SDS011;59473;53.214;5.728;2023-04-03T02:57:41;6.50;;;5.27;;
71622;SDS011;59473;53.214;5.728;2023-04-03T03:00:06;6.30;;;5.70;;
71622;SDS011;59473;53.214;5.728;2023-04-03T03:02:31;7.87;;;6.50;;
71622;SDS011;59473;53.214;5.728;2023-04-03T03:04:57;8.93;;;5.97;;
71622;SDS011;59473;53.214;5.728;2023-04-03T03:07:22;9.17;;;5.97;;
71622;SDS011;59473;53.214;5.728;2023-04-03T03:09:47;6.87;;;6.17;;
71622;SDS011;59473;53.214;5.728;2023-04-03T03:12:12;8.73;;;6.45;;
71622;SDS011;59473;53.214;5.728;2023-04-03T03:14:37;7.27;;;5.40;;
71622;SDS011;59473;53.214;5.728;2023-04-03T03:17:03;7.13;;;6.43;;
71622;SDS011;59473;53.214;5.728;2023-04-03T03:19:28;8.17;;;5.83;;
71622;SDS011;59473;53.214;5.728;2023-04-03T03:21:53;8.00;;;5.57;;
71622;SDS011;59473;53.214;5.728;2023-04-03T03:24:18;6.37;;;5.40;;
71622;SDS011;59473;53.214;5.728;2023-04-03T03:26:44;10.63;;;5.83;;
71622;SDS011;59473;53.214;5.728;2023-04-03T03:29:09;9.13;;;6.27;;
71622;SDS011;59473;53.214;5.728;2023-04-03T03:31:34;7.20;;;5.23;;
71622;SDS011;59473;53.214;5.728;2023-04-03T03:34:00;6.23;;;5.00;;
71622;SDS011;59473;53.214;5.728;2023-04-03T03:36:25;6.70;;;5.73;;
71622;SDS011;59473;53.214;5.728;2023-04-03T03:38:50;21.30;;;8.53;;
71622;SDS011;59473;53.214;5.728;2023-04-03T03:41:16;8.20;;;6.37;;
71622;SDS011;59473;53.214;5.728;2023-04-03T03:43:41;6.83;;;5.50;;
71622;SDS011;59473;53.214;5.728;2023-04-03T03:46:06;9.00;;;5.90;;
71622;SDS011;59473;53.214;5.728;2023-04-03T03:48:31;8.33;;;5.37;;
71622;SDS011;59473;53.214;5.728;2023-04-03T03:50:57;7.73;;;5.77;;
71622;SDS011;59473;53.214;5.728;2023-04-03T03:53:22;8.05;;;6.60;;
71622;SDS011;59473;53.214;5.728;2023-04-03T03:55:47;9.07;;;6.23;;
71622;SDS011;59473;53.214;5.728;2023-04-03T03:58:12;7.43;;;6.37;;
71622;SDS011;59473;53.214;5.728;2023-04-03T04:00:38;7.80;;;6.13;;
71622;SDS011;59473;53.214;5.728;2023-04-03T04:03:03;9.47;;;6.77;;
71622;SDS011;59473;53.214;5.728;2023-04-03T04:05:28;7.43;;;6.63;;
71622;SDS011;59473;53.214;5.728;2023-04-03T04:07:53;10.07;;;6.57;;
71622;SDS011;59473;53.214;5.728;2023-04-03T04:10:19;8.27;;;6.32;;
71622;SDS011;59473;53.214;5.728;2023-04-03T04:12:44;9.20;;;6.23;;
71622;SDS011;59473;53.214;5.728;2023-04-03T04:15:09;7.60;;;5.83;;
71622;SDS011;59473;53.214;5.728;2023-04-03T04:17:35;8.00;;;6.53;;
71622;SDS011;59473;53.214;5.728;2023-04-03T04:20:01;9.80;;;6.90;;
71622;SDS011;59473;53.214;5.728;2023-04-03T04:22:28;8.48;;;6.38;;
71622;SDS011;59473;53.214;5.728;2023-04-03T04:24:54;11.20;;;7.13;;
71622;SDS011;59473;53.214;5.728;2023-04-03T04:27:19;9.93;;;6.27;;
71622;SDS011;59473;53.214;5.728;2023-04-03T04:29:44;11.37;;;6.53;;
71622;SDS011;59473;53.214;5.728;2023-04-03T04:32:09;6.43;;;5.63;;
71622;SDS011;59473;53.214;5.728;2023-04-03T04:34:35;6.93;;;5.80;;
71622;SDS011;59473;53.214;5.728;2023-04-03T04:37:00;8.00;;;6.63;;
71622;SDS011;59473;53.214;5.728;2023-04-03T04:39:25;11.07;;;6.30;;
71622;SDS011;59473;53.214;5.728;2023-04-03T04:41:51;8.85;;;6.70;;
71622;SDS011;59473;53.214;5.728;2023-04-03T04:44:16;8.35;;;5.97;;
71622;SDS011;59473;53.214;5.728;2023-04-03T04:46:41;9.50;;;6.15;;
71622;SDS011;59473;53.214;5.728;2023-04-03T04:49:06;14.90;;;6.73;;
71622;SDS011;59473;53.214;5.728;2023-04-03T04:51:32;8.50;;;6.22;;
71622;SDS011;59473;53.214;5.728;2023-04-03T04:53:57;9.83;;;7.70;;
71622;SDS011;59473;53.214;5.728;2023-04-03T04:56:22;7.80;;;6.40;;
71622;SDS011;59473;53.214;5.728;2023-04-03T04:58:47;9.55;;;6.68;;
71622;SDS011;59473;53.214;5.728;2023-04-03T05:01:12;9.85;;;6.22;;
71622;SDS011;59473;53.214;5.728;2023-04-03T05:03:38;8.33;;;6.97;;
71622;SDS011;59473;53.214;5.728;2023-04-03T05:06:03;8.40;;;7.07;;
71622;SDS011;59473;53.214;5.728;2023-04-03T05:08:28;7.13;;;6.00;;
71622;SDS011;59473;53.214;5.728;2023-04-03T05:10:54;11.63;;;6.27;;
71622;SDS011;59473;53.214;5.728;2023-04-03T05:13:19;7.73;;;5.87;;
71622;SDS011;59473;53.214;5.728;2023-04-03T05:15:45;12.60;;;7.00;;
71622;SDS011;59473;53.214;5.728;2023-04-03T05:18:10;9.13;;;6.20;;
71622;SDS011;59473;53.214;5.728;2023-04-03T05:20:35;10.05;;;6.75;;
71622;SDS011;59473;53.214;5.728;2023-04-03T05:23:02;9.50;;;6.93;;
71622;SDS011;59473;53.214;5.728;2023-04-03T05:25:27;7.77;;;6.47;;
71622;SDS011;59473;53.214;5.728;2023-04-03T05:27:52;10.77;;;6.17;;
71622;SDS011;59473;53.214;5.728;2023-04-03T05:30:17;9.13;;;5.57;;
71622;SDS011;59473;53.214;5.728;2023-04-03T05:32:43;14.68;;;6.57;;
71622;SDS011;59473;53.214;5.728;2023-04-03T05:35:08;9.93;;;5.83;;
71622;SDS011;59473;53.214;5.728;2023-04-03T05:37:34;13.80;;;7.43;;
71622;SDS011;59473;53.214;5.728;2023-04-03T05:39:59;7.80;;;6.33;;
71622;SDS011;59473;53.214;5.728;2023-04-03T05:42:24;9.40;;;6.60;;
71622;SDS011;59473;53.214;5.728;2023-04-03T05:44:50;11.43;;;7.00;;
71622;SDS011;59473;53.214;5.728;2023-04-03T05:47:15;9.77;;;6.15;;
71622;SDS011;59473;53.214;5.728;2023-04-03T05:49:41;10.17;;;5.80;;
71622;SDS011;59473;53.214;5.728;2023-04-03T05:52:10;10.47;;;6.43;;
71622;SDS011;59473;53.214;5.728;2023-04-03T05:54:37;11.07;;;7.57;;
71622;SDS011;59473;53.214;5.728;2023-04-03T05:57:03;11.00;;;6.50;;
71622;SDS011;59473;53.214;5.728;2023-04-03T05:59:28;9.47;;;6.60;;
71622;SDS011;59473;53.214;5.728;2023-04-03T06:01:53;11.10;;;7.03;;
71622;SDS011;59473;53.214;5.728;2023-04-03T06:04:18;12.67;;;7.07;;
71622;SDS011;59473;53.214;5.728;2023-04-03T06:06:53;10.65;;;6.47;;
71622;SDS011;59473;53.214;5.728;2023-04-03T06:09:23;9.85;;;5.95;;
71622;SDS011;59473;53.214;5.728;2023-04-03T06:11:49;12.73;;;6.80;;
71622;SDS011;59473;53.214;5.728;2023-04-03T06:14:14;9.97;;;5.67;;
71622;SDS011;59473;53.214;5.728;2023-04-03T06:16:39;8.40;;;5.93;;
71622;SDS011;59473;53.214;5.728;2023-04-03T06:19:05;10.10;;;5.73;;
71622;SDS011;59473;53.214;5.728;2023-04-03T06:21:31;9.25;;;5.50;;
71622;SDS011;59473;53.214;5.728;2023-04-03T06:23:57;9.30;;;5.60;;
71622;SDS011;59473;53.214;5.728;2023-04-03T06:26:22;11.77;;;5.23;;
71622;SDS011;59473;53.214;5.728;2023-04-03T06:28:47;9.67;;;6.03;;
71622;SDS011;59473;53.214;5.728;2023-04-03T06:31:12;12.27;;;4.73;;
71622;SDS011;59473;53.214;5.728;2023-04-03T06:33:37;7.67;;;5.30;;
71622;SDS011;59473;53.214;5.728;2023-04-03T06:36:03;9.73;;;5.17;;
71622;SDS011;59473;53.214;5.728;2023-04-03T06:38:29;11.38;;;5.82;;
71622;SDS011;59473;53.214;5.728;2023-04-03T06:40:54;9.13;;;4.90;;
71622;SDS011;59473;53.214;5.728;2023-04-03T06:43:20;10.93;;;5.22;;
71622;SDS011;59473;53.214;5.728;2023-04-03T06:45:46;8.70;;;4.07;;
71622;SDS011;59473;53.214;5.728;2023-04-03T06:48:11;9.70;;;4.87;;
71622;SDS011;59473;53.214;5.728;2023-04-03T06:50:37;8.57;;;4.73;;
71622;SDS011;59473;53.214;5.728;2023-04-03T06:53:02;6.70;;;4.17;;
71622;SDS011;59473;53.214;5.728;2023-04-03T06:55:28;9.00;;;3.83;;
71622;SDS011;59473;53.214;5.728;2023-04-03T06:57:53;8.90;;;4.80;;
71622;SDS011;59473;53.214;5.728;2023-04-03T07:00:19;7.57;;;4.50;;
71622;SDS011;59473;53.214;5.728;2023-04-03T07:02:44;8.25;;;4.40;;
71622;SDS011;59473;53.214;5.728;2023-04-03T07:05:10;8.63;;;3.87;;
71622;SDS011;59473;53.214;5.728;2023-04-03T07:07:36;8.65;;;4.03;;
71622;SDS011;59473;53.214;5.728;2023-04-03T07:10:02;9.93;;;4.20;;
71622;SDS011;59473;53.214;5.728;2023-04-03T07:12:28;9.77;;;3.33;;
71622;SDS011;59473;53.214;5.728;2023-04-03T07:14:53;7.10;;;4.27;;
71622;SDS011;59473;53.214;5.728;2023-04-03T07:17:18;5.77;;;3.07;;
71622;SDS011;59473;53.214;5.728;2023-04-03T07:19:43;7.80;;;3.30;;
71622;SDS011;59473;53.214;5.728;2023-04-03T07:22:09;7.87;;;3.20;;
71622;SDS011;59473;53.214;5.728;2023-04-03T07:24:35;7.15;;;3.45;;
71622;SDS011;59473;53.214;5.728;2023-04-03T07:27:01;8.17;;;3.93;;
71622;SDS011;59473;53.214;5.728;2023-04-03T07:29:27;7.28;;;3.30;;
71622;SDS011;59473;53.214;5.728;2023-04-03T07:31:52;7.13;;;4.10;;
71622;SDS011;59473;53.214;5.728;2023-04-03T07:34:18;7.80;;;4.17;;
71622;SDS011;59473;53.214;5.728;2023-04-03T07:36:43;9.27;;;3.57;;
71622;SDS011;59473;53.214;5.728;2023-04-03T07:39:08;10.57;;;3.40;;
71622;SDS011;59473;53.214;5.728;2023-04-03T07:41:33;15.53;;;4.27;;
71622;SDS011;59473;53.214;5.728;2023-04-03T07:43:59;9.33;;;3.33;;
71622;SDS011;59473;53.214;5.728;2023-04-03T07:46:24;7.77;;;3.93;;
71622;SDS011;59473;53.214;5.728;2023-04-03T07:48:49;10.10;;;3.80;;
71622;SDS011;59473;53.214;5.728;2023-04-03T07:51:15;7.00;;;3.50;;
71622;SDS011;59473;53.214;5.728;2023-04-03T07:53:40;11.30;;;4.07;;
71622;SDS011;59473;53.214;5.728;2023-04-03T07:56:05;7.27;;;3.87;;
71622;SDS011;59473;53.214;5.728;2023-04-03T07:58:30;7.25;;;3.70;;
71622;SDS011;59473;53.214;5.728;2023-04-03T08:00:56;7.18;;;4.93;;
71622;SDS011;59473;53.214;5.728;2023-04-03T08:03:21;7.93;;;4.45;;
71622;SDS011;59473;53.214;5.728;2023-04-03T08:05:47;7.60;;;4.22;;
71622;SDS011;59473;53.214;5.728;2023-04-03T08:08:14;8.32;;;4.13;;
71622;SDS011;59473;53.214;5.728;2023-04-03T08:10:40;7.38;;;4.10;;
71622;SDS011;59473;53.214;5.728;2023-04-03T08:13:06;7.33;;;4.07;;
71622;SDS011;59473;53.214;5.728;2023-04-03T08:15:32;15.02;;;6.78;;
71622;SDS011;59473;53.214;5.728;2023-04-03T08:17:58;6.83;;;4.07;;
71622;SDS011;59473;53.214;5.728;2023-04-03T08:20:23;11.70;;;4.13;;
71622;SDS011;59473;53.214;5.728;2023-04-03T08:22:48;10.63;;;4.33;;
71622;SDS011;59473;53.214;5.728;2023-04-03T08:25:13;6.20;;;3.90;;
71622;SDS011;59473;53.214;5.728;2023-04-03T08:27:39;8.97;;;4.57;;
71622;SDS011;59473;53.214;5.728;2023-04-03T08:30:05;10.77;;;4.20;;
71622;SDS011;59473;53.214;5.728;2023-04-03T08:32:30;8.63;;;4.75;;
71622;SDS011;59473;53.214;5.728;2023-04-03T08:34:55;6.13;;;4.67;;
71622;SDS011;59473;53.214;5.728;2023-04-03T08:37:21;8.67;;;4.27;;
71622;SDS011;59473;53.214;5.728;2023-04-03T08:39:46;7.47;;;5.13;;
71622;SDS011;59473;53.214;5.728;2023-04-03T08:42:21;6.75;;;4.40;;
71622;SDS011;59473;53.214;5.728;2023-04-03T08:45:04;7.73;;;4.33;;
71622;SDS011;59473;53.214;5.728;2023-04-03T08:47:51;6.55;;;4.45;;
71622;SDS011;59473;53.214;5.728;2023-04-03T08:50:19;16.15;;;4.15;;
71622;SDS011;59473;53.214;5.728;2023-04-03T08:52:48;6.45;;;4.22;;
71622;SDS011;59473;53.214;5.728;2023-04-03T09:00:24;7.87;;;3.70;;
71622;SDS011;59473;53.214;5.728;2023-04-03T09:02:51;6.30;;;4.35;;
71622;SDS011;59473;53.214;5.728;2023-04-03T09:05:18;8.25;;;3.85;;
71622;SDS011;59473;53.214;5.728;2023-04-03T09:07:44;7.20;;;4.00;;
71622;SDS011;59473;53.214;5.728;2023-04-03T09:10:12;5.95;;;3.97;;
71622;SDS011;59473;53.214;5.728;2023-04-03T09:12:39;7.63;;;4.03;;
71622;SDS011;59473;53.214;5.728;2023-04-03T09:17:35;6.53;;;3.90;;
71622;SDS011;59473;53.214;5.728;2023-04-03T09:20:07;5.45;;;2.92;;
71622;SDS011;59473;53.214;5.728;2023-04-03T09:22:34;5.68;;;4.07;;
71622;SDS011;59473;53.214;5.728;2023-04-03T09:25:21;5.95;;;3.22;;
71622;SDS011;59473;53.214;5.728;2023-04-03T09:27:48;6.65;;;3.90;;
71622;SDS011;59473;53.214;5.728;2023-04-03T09:30:18;5.30;;;3.30;;
71622;SDS011;59473;53.214;5.728;2023-04-03T09:32:46;5.97;;;3.17;;
71622;SDS011;59473;53.214;5.728;2023-04-03T09:35:16;6.10;;;3.45;;
71622;SDS011;59473;53.214;5.728;2023-04-03T09:37:43;5.25;;;3.75;;
71622;SDS011;59473;53.214;5.728;2023-04-03T09:40:27;5.10;;;3.30;;
71622;SDS011;59473;53.214;5.728;2023-04-03T09:42:53;5.78;;;3.03;;
71622;SDS011;59473;53.214;5.728;2023-04-03T09:45:26;5.00;;;3.08;;
71622;SDS011;59473;53.214;5.728;2023-04-03T09:50:33;5.68;;;3.38;;
71622;SDS011;59473;53.214;5.728;2023-04-03T09:53:01;5.33;;;2.60;;
71622;SDS011;59473;53.214;5.728;2023-04-03T09:55:29;4.75;;;2.80;;
71622;SDS011;59473;53.214;5.728;2023-04-03T09:57:59;5.40;;;2.70;;
71622;SDS011;59473;53.214;5.728;2023-04-03T10:00:25;4.90;;;2.88;;
71622;SDS011;59473;53.214;5.728;2023-04-03T10:02:55;5.32;;;3.28;;
71622;SDS011;59473;53.214;5.728;2023-04-03T10:05:28;4.97;;;3.17;;
71622;SDS011;59473;53.214;5.728;2023-04-03T10:10:31;4.30;;;2.83;;
71622;SDS011;59473;53.214;5.728;2023-04-03T10:13:07;4.30;;;3.03;;
71622;SDS011;59473;53.214;5.728;2023-04-03T10:15:42;3.85;;;2.75;;
71622;SDS011;59473;53.214;5.728;2023-04-03T10:18:23;4.72;;;3.10;;
71622;SDS011;59473;53.214;5.728;2023-04-03T10:20:51;4.72;;;2.65;;
71622;SDS011;59473;53.214;5.728;2023-04-03T10:34:37;5.28;;;2.60;;
71622;SDS011;59473;53.214;5.728;2023-04-03T10:39:41;5.07;;;2.60;;
71622;SDS011;59473;53.214;5.728;2023-04-03T10:44:47;5.40;;;2.60;;
71622;SDS011;59473;53.214;5.728;2023-04-03T10:57:24;4.43;;;2.83;;
71622;SDS011;59473;53.214;5.728;2023-04-03T10:59:51;5.50;;;2.60;;
71622;SDS011;59473;53.214;5.728;2023-04-03T11:04:44;5.47;;;3.05;;
71622;SDS011;59473;53.214;5.728;2023-04-03T11:07:12;4.30;;;2.10;;
71622;SDS011;59473;53.214;5.728;2023-04-03T11:09:40;5.53;;;3.00;;
71622;SDS011;59473;53.214;5.728;2023-04-03T11:12:11;4.78;;;2.97;;
71622;SDS011;59473;53.214;5.728;2023-04-03T11:14:37;3.93;;;2.47;;
71622;SDS011;59473;53.214;5.728;2023-04-03T11:24:56;5.53;;;2.80;;
71622;SDS011;59473;53.214;5.728;2023-04-03T11:27:22;5.18;;;2.83;;
71622;SDS011;59473;53.214;5.728;2023-04-03T11:29:48;3.55;;;2.50;;
71622;SDS011;59473;53.214;5.728;2023-04-03T11:32:34;5.10;;;3.13;;
71622;SDS011;59473;53.214;5.728;2023-04-03T11:35:07;4.60;;;2.28;;
71622;SDS011;59473;53.214;5.728;2023-04-03T11:40:04;4.20;;;2.50;;
71622;SDS011;59473;53.214;5.728;2023-04-03T11:47:45;5.10;;;3.13;;
71622;SDS011;59473;53.214;5.728;2023-04-03T11:52:59;5.97;;;2.30;;
71622;SDS011;59473;53.214;5.728;2023-04-03T12:08:45;5.50;;;3.28;;
71622;SDS011;59473;53.214;5.728;2023-04-03T12:21:22;4.65;;;2.90;;
71622;SDS011;59473;53.214;5.728;2023-04-03T12:26:34;4.53;;;2.55;;
71622;SDS011;59473;53.214;5.728;2023-04-03T12:29:13;5.10;;;2.60;;
71622;SDS011;59473;53.214;5.728;2023-04-03T12:31:42;4.87;;;2.70;;
71622;SDS011;59473;53.214;5.728;2023-04-03T12:39:35;5.28;;;2.20;;
71622;SDS011;59473;53.214;5.728;2023-04-03T12:42:23;4.80;;;2.63;;
71622;SDS011;59473;53.214;5.728;2023-04-03T12:44:56;4.90;;;2.73;;
71622;SDS011;59473;53.214;5.728;2023-04-03T12:47:33;4.35;;;2.22;;
71622;SDS011;59473;53.214;5.728;2023-04-03T12:50:02;4.43;;;2.92;;
71622;SDS011;59473;53.214;5.728;2023-04-03T12:52:33;10.00;;;3.10;;
71622;SDS011;59473;53.214;5.728;2023-04-03T12:55:00;4.38;;;2.25;;
71622;SDS011;59473;53.214;5.728;2023-04-03T12:57:29;5.67;;;2.53;;
71622;SDS011;59473;53.214;5.728;2023-04-03T12:59:54;4.20;;;2.28;;
71622;SDS011;59473;53.214;5.728;2023-04-03T13:02:27;3.93;;;2.60;;
71622;SDS011;59473;53.214;5.728;2023-04-03T13:04:53;5.35;;;2.88;;
71622;SDS011;59473;53.214;5.728;2023-04-03T13:07:21;3.55;;;2.10;;
71622;SDS011;59473;53.214;5.728;2023-04-03T13:09:55;8.18;;;2.95;;
71622;SDS011;59473;53.214;5.728;2023-04-03T13:12:20;4.57;;;2.30;;
71622;SDS011;59473;53.214;5.728;2023-04-03T13:14:53;4.03;;;2.30;;
71622;SDS011;59473;53.214;5.728;2023-04-03T13:17:19;5.90;;;2.70;;
71622;SDS011;59473;53.214;5.728;2023-04-03T13:19:45;4.20;;;2.50;;
71622;SDS011;59473;53.214;5.728;2023-04-03T13:24:44;4.53;;;2.80;;
71622;SDS011;59473;53.214;5.728;2023-04-03T13:27:11;5.35;;;2.40;;
71622;SDS011;59473;53.214;5.728;2023-04-03T13:29:38;5.13;;;2.50;;
71622;SDS011;59473;53.214;5.728;2023-04-03T13:32:04;5.20;;;3.08;;
71622;SDS011;59473;53.214;5.728;2023-04-03T13:34:36;5.47;;;2.33;;
71622;SDS011;59473;53.214;5.728;2023-04-03T13:37:02;3.72;;;2.05;;
71622;SDS011;59473;53.214;5.728;2023-04-03T13:39:33;3.85;;;2.30;;
71622;SDS011;59473;53.214;5.728;2023-04-03T13:41:59;3.80;;;2.30;;
71622;SDS011;59473;53.214;5.728;2023-04-03T13:44:31;4.22;;;2.25;;
71622;SDS011;59473;53.214;5.728;2023-04-03T13:49:41;5.28;;;2.55;;
71622;SDS011;59473;53.214;5.728;2023-04-03T13:55:00;4.30;;;2.40;;
71622;SDS011;59473;53.214;5.728;2023-04-03T13:57:26;6.93;;;2.20;;
71622;SDS011;59473;53.214;5.728;2023-04-03T13:59:52;5.00;;;2.50;;
71622;SDS011;59473;53.214;5.728;2023-04-03T14:02:22;4.30;;;2.20;;
71622;SDS011;59473;53.214;5.728;2023-04-03T14:04:52;4.28;;;2.63;;
71622;SDS011;59473;53.214;5.728;2023-04-03T14:07:21;5.18;;;2.40;;
71622;SDS011;59473;53.214;5.728;2023-04-03T14:09:47;6.70;;;2.67;;
71622;SDS011;59473;53.214;5.728;2023-04-03T14:12:27;4.50;;;2.23;;
71622;SDS011;59473;53.214;5.728;2023-04-03T14:14:53;4.50;;;2.60;;
71622;SDS011;59473;53.214;5.728;2023-04-03T14:17:23;4.30;;;2.77;;
71622;SDS011;59473;53.214;5.728;2023-04-03T14:19:49;6.30;;;2.53;;
71622;SDS011;59473;53.214;5.728;2023-04-03T14:22:22;4.80;;;2.60;;
71622;SDS011;59473;53.214;5.728;2023-04-03T14:24:48;4.40;;;2.50;;
71622;SDS011;59473;53.214;5.728;2023-04-03T14:27:21;4.47;;;2.20;;
71622;SDS011;59473;53.214;5.728;2023-04-03T14:29:47;4.88;;;2.30;;
71622;SDS011;59473;53.214;5.728;2023-04-03T14:32:13;4.72;;;2.30;;
71622;SDS011;59473;53.214;5.728;2023-04-03T14:34:39;6.38;;;2.60;;
71622;SDS011;59473;53.214;5.728;2023-04-03T14:37:08;5.10;;;2.58;;
71622;SDS011;59473;53.214;5.728;2023-04-03T14:39:34;5.50;;;2.40;;
71622;SDS011;59473;53.214;5.728;2023-04-03T14:41:59;4.03;;;2.30;;
71622;SDS011;59473;53.214;5.728;2023-04-03T14:44:24;4.93;;;2.28;;
71622;SDS011;59473;53.214;5.728;2023-04-03T14:46:50;6.18;;;2.97;;
71622;SDS011;59473;53.214;5.728;2023-04-03T14:49:16;4.87;;;2.40;;
71622;SDS011;59473;53.214;5.728;2023-04-03T14:51:43;4.63;;;2.58;;
71622;SDS011;59473;53.214;5.728;2023-04-03T14:54:16;5.03;;;2.40;;
71622;SDS011;59473;53.214;5.728;2023-04-03T14:56:41;6.43;;;2.53;;
71622;SDS011;59473;53.214;5.728;2023-04-03T14:59:11;6.70;;;2.70;;
71622;SDS011;59473;53.214;5.728;2023-04-03T15:01:36;6.05;;;2.67;;
71622;SDS011;59473;53.214;5.728;2023-04-03T15:04:05;4.80;;;2.60;;
71622;SDS011;59473;53.214;5.728;2023-04-03T15:06:30;6.68;;;2.75;;
71622;SDS011;59473;53.214;5.728;2023-04-03T15:08:55;5.47;;;2.20;;
71622;SDS011;59473;53.214;5.728;2023-04-03T15:11:20;11.07;;;2.63;;
71622;SDS011;59473;53.214;5.728;2023-04-03T15:13:46;8.20;;;2.80;;
71622;SDS011;59473;53.214;5.728;2023-04-03T15:16:12;8.33;;;3.10;;
71622;SDS011;59473;53.214;5.728;2023-04-03T15:18:39;5.40;;;2.80;;
71622;SDS011;59473;53.214;5.728;2023-04-03T15:21:05;4.20;;;2.20;;
71622;SDS011;59473;53.214;5.728;2023-04-03T15:23:30;7.20;;;2.90;;
71622;SDS011;59473;53.214;5.728;2023-04-03T15:25:55;10.13;;;2.67;;
71622;SDS011;59473;53.214;5.728;2023-04-03T15:30:46;8.07;;;3.80;;
71622;SDS011;59473;53.214;5.728;2023-04-03T15:33:11;7.45;;;3.88;;
71622;SDS011;59473;53.214;5.728;2023-04-03T15:35:36;10.15;;;2.85;;
71622;SDS011;59473;53.214;5.728;2023-04-03T15:38:02;4.97;;;2.45;;
71622;SDS011;59473;53.214;5.728;2023-04-03T15:40:27;5.95;;;2.60;;
71622;SDS011;59473;53.214;5.728;2023-04-03T15:42:52;9.80;;;2.90;;
71622;SDS011;59473;53.214;5.728;2023-04-03T15:45:17;4.53;;;2.60;;
71622;SDS011;59473;53.214;5.728;2023-04-03T15:47:43;6.93;;;3.17;;
71622;SDS011;59473;53.214;5.728;2023-04-03T15:50:08;8.53;;;2.60;;
71622;SDS011;59473;53.214;5.728;2023-04-03T15:52:34;5.47;;;2.73;;
71622;SDS011;59473;53.214;5.728;2023-04-03T15:54:59;5.75;;;2.72;;
71622;SDS011;59473;53.214;5.728;2023-04-03T15:57:24;5.97;;;2.10;;
71622;SDS011;59473;53.214;5.728;2023-04-03T15:59:51;4.63;;;2.07;;
71622;SDS011;59473;53.214;5.728;2023-04-03T16:02:17;7.25;;;2.58;;
71622;SDS011;59473;53.214;5.728;2023-04-03T16:04:42;3.67;;;2.23;;
71622;SDS011;59473;53.214;5.728;2023-04-03T16:07:07;5.03;;;2.63;;
71622;SDS011;59473;53.214;5.728;2023-04-03T16:09:33;6.10;;;2.30;;
71622;SDS011;59473;53.214;5.728;2023-04-03T16:11:59;5.32;;;2.55;;
71622;SDS011;59473;53.214;5.728;2023-04-03T16:14:25;6.90;;;3.00;;
71622;SDS011;59473;53.214;5.728;2023-04-03T16:16:50;4.43;;;2.40;;
71622;SDS011;59473;53.214;5.728;2023-04-03T16:19:15;4.47;;;2.30;;
71622;SDS011;59473;53.214;5.728;2023-04-03T16:21:41;4.80;;;2.20;;
71622;SDS011;59473;53.214;5.728;2023-04-03T16:24:06;6.15;;;3.00;;
71622;SDS011;59473;53.214;5.728;2023-04-03T16:26:32;5.80;;;2.83;;
71622;SDS011;59473;53.214;5.728;2023-04-03T16:28:57;5.80;;;2.40;;